createdAt,value
2023-01-27T00:06:06.783Z,133.57
2023-01-27T00:08:34.668Z,26.73
2023-01-27T00:11:25.947Z,39.70
2023-01-27T00:13:53.997Z,66.73
2023-01-27T00:16:23.294Z,12.13
2023-01-27T00:18:59.247Z,31.53
2023-01-27T00:21:52.132Z,19.00
2023-01-27T00:24:49.335Z,302.30
2023-01-27T00:27:36.678Z,10.73
2023-01-27T00:33:27.722Z,33.87
2023-01-27T00:36:02.667Z,24.37
2023-01-27T00:38:31.639Z,28.20
2023-01-27T00:41:19.889Z,86.60
2023-01-27T00:47:18.289Z,86.90
2023-01-27T00:49:47.505Z,99.83
2023-01-27T00:52:17.840Z,392.63
2023-01-27T00:59:52.419Z,139.30
2023-01-27T01:02:19.917Z,56.33
2023-01-27T01:04:47.403Z,84.30
2023-01-27T01:07:14.691Z,97.67
2023-01-27T01:09:42.960Z,63.70
2023-01-27T01:12:13.359Z,226.50
2023-01-27T01:14:41.270Z,49.23
2023-01-27T01:17:09.645Z,32.30
2023-01-27T01:24:37.507Z,45.33
2023-01-27T01:27:05.086Z,98.80
2023-01-27T01:29:33.228Z,29.00
2023-01-27T01:32:01.545Z,76.20
2023-01-27T01:34:29.625Z,52.60
2023-01-27T01:36:57.952Z,32.63
2023-01-27T01:39:25.468Z,31.33
2023-01-27T01:41:54.135Z,29.53
2023-01-27T01:49:27.911Z,22.13
2023-01-27T01:51:59.189Z,19.20
2023-01-27T01:54:30.329Z,21.60
2023-01-27T01:57:04.132Z,19.00
2023-01-27T01:59:34.810Z,20.50
2023-01-27T02:02:07.037Z,22.20
2023-01-27T02:04:41.589Z,22.77
2023-01-27T02:07:13.670Z,20.37
2023-01-27T02:14:45.795Z,18.83
2023-01-27T02:17:14.897Z,24.17
2023-01-27T02:19:54.025Z,116.63
2023-01-27T02:22:30.711Z,40.47
2023-01-27T02:25:06.778Z,23.33
2023-01-27T02:27:36.011Z,147.27
2023-01-27T02:30:03.834Z,41.50
2023-01-27T02:32:31.100Z,31.60
2023-01-27T02:40:03.105Z,34.27
2023-01-27T02:42:30.882Z,39.67
2023-01-27T02:44:58.937Z,39.97
2023-01-27T02:47:27.041Z,26.47
2023-01-27T02:49:54.439Z,29.33
2023-01-27T02:52:22.961Z,48.37
2023-01-27T02:54:51.121Z,22.47
2023-01-27T02:57:34.990Z,22.93
2023-01-27T03:05:02.425Z,63.97
2023-01-27T03:07:30.253Z,149.47
2023-01-27T03:09:58.211Z,71.23
2023-01-27T03:12:25.825Z,81.30
2023-01-27T03:15:11.938Z,29.17
2023-01-27T03:17:57.768Z,84.53
2023-01-27T03:20:26.245Z,142.50
2023-01-27T03:28:00.006Z,88.47
2023-01-27T03:30:31.692Z,41.97
2023-01-27T03:33:05.573Z,112.83
2023-01-27T03:35:38.665Z,158.73
2023-01-27T03:38:29.006Z,40.77
2023-01-27T03:41:14.042Z,51.80
2023-01-27T03:44:01.039Z,122.03
2023-01-27T03:46:30.982Z,39.13
2023-01-27T03:51:40.659Z,27.03
2023-01-27T03:54:10.695Z,16.90
2023-01-27T03:56:37.962Z,177.73
2023-01-27T03:59:05.412Z,47.47
2023-01-27T04:01:33.345Z,75.30
2023-01-27T04:04:18.800Z,41.40
2023-01-27T04:07:05.278Z,106.60
2023-01-27T04:14:41.616Z,143.63
2023-01-27T04:17:12.015Z,167.50
2023-01-27T04:19:40.232Z,154.03
2023-01-27T04:22:09.959Z,99.70
2023-01-27T04:24:37.324Z,275.20
2023-01-27T04:27:06.717Z,276.13
2023-01-27T04:29:37.354Z,54.00
2023-01-27T04:32:06.688Z,274.07
2023-01-27T04:34:34.364Z,200.20
2023-01-27T04:42:08.072Z,354.57
2023-01-27T04:44:35.524Z,284.13
2023-01-27T04:47:03.360Z,320.30
2023-01-27T04:49:31.022Z,224.23
2023-01-27T04:52:01.655Z,367.43
2023-01-27T04:54:29.527Z,196.10
2023-01-27T04:57:02.945Z,293.33
2023-01-27T05:04:31.914Z,225.17
2023-01-27T05:06:59.476Z,94.03
2023-01-27T05:09:26.920Z,251.20
2023-01-27T05:11:54.531Z,408.07
2023-01-27T05:14:23.275Z,234.80
2023-01-27T05:16:50.657Z,67.83
2023-01-27T05:19:18.048Z,117.70
2023-01-27T05:29:13.930Z,173.50
2023-01-27T05:31:41.477Z,127.50
2023-01-27T05:34:09.918Z,156.17
2023-01-27T05:36:37.818Z,117.97
2023-01-27T05:39:06.554Z,312.77
2023-01-27T05:41:35.133Z,161.57
2023-01-27T05:44:02.982Z,188.20
2023-01-27T05:49:09.591Z,25.77
2023-01-27T05:51:39.616Z,18.20
2023-01-27T05:54:10.062Z,191.90
2023-01-27T05:56:37.900Z,47.90
2023-01-27T05:59:05.490Z,93.87
2023-01-27T06:01:35.142Z,234.10
2023-01-27T06:04:05.532Z,23.27
2023-01-27T06:11:37.991Z,97.47
2023-01-27T06:14:05.629Z,434.50
2023-01-27T06:16:33.430Z,181.57
2023-01-27T06:19:01.887Z,458.07
2023-01-27T06:21:29.644Z,126.00
2023-01-27T06:23:57.593Z,93.63
2023-01-27T06:26:25.344Z,234.50
2023-01-27T06:28:56.919Z,416.80
2023-01-27T06:36:32.986Z,436.63
2023-01-27T06:39:00.668Z,497.87
2023-01-27T06:41:28.048Z,205.33
2023-01-27T06:43:58.569Z,308.03
2023-01-27T06:46:28.571Z,131.43
2023-01-27T06:48:56.037Z,191.03
2023-01-27T06:51:23.582Z,354.73
2023-01-27T06:59:03.844Z,316.50
2023-01-27T07:01:31.256Z,330.10
2023-01-27T07:03:59.321Z,191.97
2023-01-27T07:06:26.824Z,188.60
2023-01-27T07:08:55.458Z,133.77
2023-01-27T07:11:24.880Z,369.50
2023-01-27T07:13:53.230Z,459.77
2023-01-27T07:16:21.973Z,371.30
2023-01-27T07:23:54.378Z,233.47
2023-01-27T07:26:25.181Z,347.07
2023-01-27T07:28:53.174Z,168.13
2023-01-27T07:31:21.337Z,494.93
2023-01-27T07:33:51.179Z,421.87
2023-01-27T07:36:18.639Z,331.47
2023-01-27T07:38:51.060Z,307.70
2023-01-27T07:41:20.082Z,382.53
2023-01-27T07:48:56.043Z,120.00
2023-01-27T07:51:25.167Z,373.20
2023-01-27T07:53:52.630Z,264.57
2023-01-27T07:56:20.147Z,338.97
2023-01-27T07:58:47.716Z,181.37
2023-01-27T08:01:15.598Z,208.70
2023-01-27T08:03:42.938Z,72.33
2023-01-27T08:08:50.575Z,145.70
2023-01-27T08:11:20.885Z,77.40
2023-01-27T08:13:48.856Z,98.87
2023-01-27T08:16:19.579Z,35.63
2023-01-27T08:18:47.284Z,362.80
2023-01-27T08:21:16.410Z,70.07
2023-01-27T08:23:44.255Z,75.57
2023-01-27T08:28:59.266Z,376.20
2023-01-27T08:31:29.339Z,240.60
2023-01-27T08:34:00.009Z,167.30
2023-01-27T08:36:29.175Z,98.13
2023-01-27T08:38:59.459Z,54.10
2023-01-27T08:41:27.794Z,189.97
2023-01-27T08:43:56.412Z,124.23
2023-01-27T08:49:23.173Z,102.60
2023-01-27T08:51:50.117Z,34.67
2023-01-27T08:54:17.417Z,14.47
2023-01-27T08:56:45.854Z,13.17
2023-01-27T08:59:13.303Z,46.73
2023-01-27T09:01:41.722Z,89.80
2023-01-27T09:04:11.029Z,26.03
2023-01-27T09:09:30.236Z,63.27
2023-01-27T09:11:58.426Z,162.77
2023-01-27T09:14:28.390Z,30.20
2023-01-27T09:16:57.310Z,178.03
2023-01-27T09:19:26.097Z,30.63
2023-01-27T09:21:54.001Z,84.90
2023-01-27T09:24:23.435Z,11.73
2023-01-27T09:31:56.735Z,100.47
2023-01-27T09:34:56.337Z,15.40
2023-01-27T09:37:27.758Z,12.30
2023-01-27T09:40:05.366Z,15.27
2023-01-27T09:43:28.122Z,29.33
2023-01-27T09:46:34.272Z,15.67
2023-01-27T09:49:46.180Z,10.07
2023-01-27T09:52:47.900Z,11.20
2023-01-27T10:01:13.870Z,8.80
2023-01-27T10:12:05.634Z,6.97
2023-01-27T10:18:51.378Z,10.30
2023-01-27T10:25:40.173Z,9.57
2023-01-27T10:28:13.229Z,7.13
2023-01-27T10:30:53.182Z,9.53
2023-01-27T10:39:06.027Z,5.90
2023-01-27T10:41:41.745Z,7.70
2023-01-27T10:44:25.284Z,5.83
2023-01-27T10:47:01.999Z,5.83
2023-01-27T10:49:32.501Z,6.70
2023-01-27T10:52:04.831Z,6.90
2023-01-27T10:54:36.984Z,6.20
2023-01-27T11:02:19.398Z,7.27
2023-01-27T11:04:50.063Z,6.07
2023-01-27T11:07:19.553Z,7.40
2023-01-27T11:09:53.579Z,8.87
2023-01-27T11:12:28.577Z,7.63
2023-01-27T11:14:58.963Z,5.97
2023-01-27T11:17:31.826Z,6.43
2023-01-27T11:27:46.231Z,5.63
2023-01-27T11:30:18.659Z,5.63
2023-01-27T11:32:54.781Z,5.87
2023-01-27T11:35:22.687Z,5.73
2023-01-27T11:37:53.700Z,9.43
2023-01-27T11:40:29.877Z,6.17
2023-01-27T11:42:59.629Z,5.50
2023-01-27T11:45:28.971Z,5.63
2023-01-27T11:53:39.021Z,4.80
2023-01-27T11:56:15.733Z,4.63
2023-01-27T11:58:48.808Z,3.30
2023-01-27T12:01:19.859Z,3.30
2023-01-27T12:03:57.578Z,2.80
2023-01-27T12:06:34.276Z,3.60
2023-01-27T12:09:03.582Z,3.97
2023-01-27T12:14:25.112Z,3.83
2023-01-27T12:16:54.128Z,2.93
2023-01-27T12:19:26.146Z,3.13
2023-01-27T12:21:58.244Z,3.93
2023-01-27T12:24:29.999Z,3.23
2023-01-27T12:26:58.484Z,4.00
2023-01-27T12:29:40.528Z,4.20
2023-01-27T12:38:03.725Z,6.13
2023-01-27T12:40:33.047Z,4.40
2023-01-27T12:43:13.761Z,4.23
2023-01-27T12:45:43.395Z,5.07
2023-01-27T12:48:19.564Z,4.60
2023-01-27T12:51:04.818Z,4.37
2023-01-27T12:53:33.557Z,3.57
2023-01-27T13:01:20.672Z,4.57
2023-01-27T13:03:53.075Z,5.93
2023-01-27T13:06:30.979Z,4.17
2023-01-27T13:09:00.368Z,4.30
2023-01-27T13:11:37.787Z,3.83
2023-01-27T13:14:10.136Z,3.13
2023-01-27T13:16:39.252Z,2.50
2023-01-27T13:27:43.413Z,3.47
2023-01-27T13:30:21.675Z,3.57
2023-01-27T13:32:52.404Z,2.23
2023-01-27T13:35:25.512Z,4.07
2023-01-27T13:38:02.021Z,3.87
2023-01-27T13:40:32.785Z,2.77
2023-01-27T13:43:09.029Z,2.40
2023-01-27T13:50:41.519Z,3.37
2023-01-27T13:53:14.862Z,1.97
2023-01-27T13:56:01.232Z,2.63
2023-01-27T13:58:38.872Z,2.40
2023-01-27T14:01:16.612Z,2.47
2023-01-27T14:04:14.686Z,1.77
2023-01-27T14:06:55.683Z,1.90
2023-01-27T14:12:56.278Z,2.03
2023-01-27T14:15:30.472Z,2.67
2023-01-27T14:18:05.555Z,1.67
2023-01-27T14:20:46.006Z,2.30
2023-01-27T14:23:25.513Z,2.37
2023-01-27T14:26:03.228Z,2.50
2023-01-27T14:34:18.538Z,1.63
2023-01-27T14:36:53.109Z,2.00
2023-01-27T14:39:29.765Z,1.87
2023-01-27T14:42:04.641Z,1.50
2023-01-27T14:44:43.898Z,2.37
2023-01-27T14:47:23.543Z,2.63
2023-01-27T14:50:25.759Z,2.80
2023-01-27T14:58:12.547Z,2.30
2023-01-27T15:00:47.854Z,2.67
2023-01-27T15:03:54.681Z,2.97
2023-01-27T15:06:29.186Z,3.17
2023-01-27T15:09:06.067Z,2.70
2023-01-27T15:11:49.120Z,5.23
2023-01-27T15:14:57.100Z,3.17
2023-01-27T15:20:28.177Z,2.43
2023-01-27T15:23:19.140Z,3.93
2023-01-27T15:25:49.341Z,2.67
2023-01-27T15:28:20.227Z,3.67
2023-01-27T15:31:09.830Z,3.30
2023-01-27T15:33:51.152Z,3.10
2023-01-27T15:36:31.272Z,3.30
2023-01-27T15:44:15.941Z,4.10
2023-01-27T15:46:45.163Z,3.33
2023-01-27T15:49:19.797Z,3.13
2023-01-27T15:51:48.240Z,3.57
2023-01-27T15:54:19.445Z,3.67
2023-01-27T15:56:50.063Z,3.00
2023-01-27T15:59:23.916Z,5.70
2023-01-27T16:02:02.390Z,4.60
2023-01-27T16:10:05.940Z,4.53
2023-01-27T16:12:40.057Z,4.60
2023-01-27T16:15:32.976Z,4.57
2023-01-27T16:18:19.117Z,6.30
2023-01-27T16:20:53.839Z,5.60
2023-01-27T16:23:34.212Z,5.90
2023-01-27T16:33:38.803Z,106.17
2023-01-27T16:36:18.553Z,7.57
2023-01-27T16:38:48.249Z,5.80
2023-01-27T16:41:19.365Z,5.67
2023-01-27T16:43:52.422Z,8.17
2023-01-27T16:46:30.911Z,9.93
2023-01-27T16:49:04.249Z,8.03
2023-01-27T16:59:02.364Z,7.53
2023-01-27T17:01:37.455Z,7.87
2023-01-27T17:04:19.049Z,8.20
2023-01-27T17:06:47.758Z,11.00
2023-01-27T17:09:23.478Z,11.17
2023-01-27T17:11:53.259Z,9.20
2023-01-27T17:14:30.769Z,10.43
2023-01-27T17:25:59.097Z,9.77
2023-01-27T17:28:53.311Z,8.13
2023-01-27T17:31:25.565Z,7.83
2023-01-27T17:34:31.592Z,8.33
2023-01-27T17:37:26.487Z,9.00
2023-01-27T17:50:44.982Z,9.33
2023-01-27T18:03:45.569Z,11.80
2023-01-27T18:06:17.135Z,9.33
2023-01-27T18:08:51.831Z,9.77
2023-01-27T18:11:31.078Z,10.23
2023-01-27T18:14:08.332Z,11.03
2023-01-27T18:16:36.501Z,9.53
2023-01-27T18:19:19.151Z,9.13
2023-01-27T18:27:32.534Z,11.93
2023-01-27T18:30:08.375Z,10.63
2023-01-27T18:32:42.391Z,10.10
2023-01-27T18:35:25.485Z,11.20
2023-01-27T18:37:56.629Z,9.53
2023-01-27T18:40:30.395Z,10.40
2023-01-27T18:42:59.498Z,10.70
2023-01-27T18:45:28.698Z,9.40
2023-01-27T18:53:15.686Z,9.43
2023-01-27T18:55:43.396Z,10.07
2023-01-27T18:58:12.887Z,9.93
2023-01-27T19:00:47.273Z,9.73
2023-01-27T19:03:19.200Z,9.93
2023-01-27T19:05:47.537Z,10.73
2023-01-27T19:08:16.252Z,8.83
2023-01-27T19:16:21.363Z,10.27
2023-01-27T19:18:49.717Z,10.40
2023-01-27T19:21:17.736Z,10.60
2023-01-27T19:23:48.275Z,8.00
2023-01-27T19:26:17.678Z,9.93
2023-01-27T19:28:46.740Z,11.83
2023-01-27T19:31:15.797Z,9.50
2023-01-27T19:33:44.432Z,9.07
2023-01-27T19:36:20.469Z,7.87
2023-01-27T19:44:25.153Z,7.97
2023-01-27T19:46:55.011Z,9.27
2023-01-27T19:49:23.085Z,8.13
2023-01-27T19:51:50.643Z,9.43
2023-01-27T19:54:18.731Z,8.33
2023-01-27T19:56:46.334Z,6.30
2023-01-27T19:59:14.075Z,6.73
2023-01-27T20:01:43.393Z,7.10
2023-01-27T20:09:17.409Z,6.97
2023-01-27T20:11:45.332Z,7.17
2023-01-27T20:14:14.914Z,6.27
2023-01-27T20:16:43.287Z,6.10
2023-01-27T20:19:14.362Z,7.63
2023-01-27T20:21:42.543Z,7.30
2023-01-27T20:24:14.045Z,7.70
2023-01-27T20:29:25.820Z,7.60
2023-01-27T20:31:53.615Z,9.03
2023-01-27T20:34:21.087Z,6.63
2023-01-27T20:36:55.861Z,7.43
2023-01-27T20:39:23.517Z,5.87
2023-01-27T20:41:51.687Z,6.53
2023-01-27T20:44:19.829Z,7.00
2023-01-27T20:49:29.429Z,7.13
2023-01-27T20:51:58.079Z,7.87
2023-01-27T20:54:25.468Z,6.70
2023-01-27T20:56:53.210Z,7.60
2023-01-27T20:59:20.591Z,6.57
2023-01-27T21:01:47.809Z,7.00
2023-01-27T21:04:15.251Z,7.30
2023-01-27T21:06:45.593Z,5.70
2023-01-27T21:09:13.547Z,5.87
2023-01-27T21:17:14.770Z,7.10
2023-01-27T21:19:42.738Z,7.47
2023-01-27T21:22:09.880Z,7.57
2023-01-27T21:24:39.167Z,6.20
2023-01-27T21:27:07.477Z,5.77
2023-01-27T21:29:35.440Z,5.67
2023-01-27T21:32:03.292Z,5.67
2023-01-27T21:39:36.070Z,5.77
2023-01-27T21:42:21.928Z,6.90
2023-01-27T21:45:07.366Z,5.90
2023-01-27T21:47:34.911Z,8.27
2023-01-27T21:50:02.414Z,8.63
2023-01-27T21:52:34.353Z,8.23
2023-01-27T21:55:04.117Z,7.37
2023-01-27T22:03:05.880Z,9.60
2023-01-27T22:05:36.365Z,7.73
2023-01-27T22:08:06.259Z,9.83
2023-01-27T22:10:34.330Z,7.50
2023-01-27T22:13:03.694Z,9.77
2023-01-27T22:15:31.804Z,8.13
2023-01-27T22:18:02.741Z,7.57
2023-01-27T22:26:07.881Z,9.43
2023-01-27T22:28:35.227Z,7.70
2023-01-27T22:31:02.917Z,10.13
2023-01-27T22:33:32.259Z,9.10
2023-01-27T22:36:02.216Z,7.40
2023-01-27T22:38:29.717Z,8.13
2023-01-27T22:40:57.515Z,6.93
2023-01-27T22:46:36.260Z,7.23
2023-01-27T22:49:03.931Z,6.50
2023-01-27T22:51:31.381Z,9.90
2023-01-27T22:53:59.760Z,7.77
2023-01-27T22:56:27.039Z,13.53
2023-01-27T22:58:54.451Z,6.83
2023-01-27T23:01:22.021Z,8.00
2023-01-27T23:09:22.559Z,10.37
2023-01-27T23:11:50.681Z,9.13
2023-01-27T23:14:18.060Z,6.67
2023-01-27T23:16:48.082Z,8.73
2023-01-27T23:19:16.946Z,9.53
2023-01-27T23:21:44.423Z,8.30
2023-01-27T23:24:14.107Z,7.00
2023-01-27T23:31:47.809Z,10.00
2023-01-27T23:34:15.639Z,10.07
2023-01-27T23:36:43.091Z,8.30
2023-01-27T23:39:14.355Z,8.67
2023-01-27T23:41:42.308Z,9.57
2023-01-27T23:44:11.230Z,7.00
2023-01-27T23:46:38.900Z,8.53
2023-01-27T23:49:09.520Z,8.80
2023-01-27T23:56:57.938Z,11.47
2023-01-27T23:59:25.776Z,11.17
